Terminal Aerodrome Forecast
Issued by NWS

Home | Current Version | Previous Version | Text Only | Print | Product List | Glossary On
Versions: 1 2 3 4 5 6 7 8 9 10 11 12 13 14 15
469
FTAK31 PAJN 092334
TAFAYA
TAF
PAYA 092334Z 1000/1024 07003KT P6SM SKC
     FM100300 07006KT P6SM FEW005 BKN120 WS020/06025KT
     FM101300 06010KT 4SM -RA BR SCT010 BKN025 OVC050 WS020/08030KT
     FM102100 12012KT P6SM -RA SCT025 OVC050
      AMD LTD TO CLD VIS AND WIND 1001/1009=

USA.gov is the U.S. government's official web portal to all federal, state and local government web resources and services.